Time;durP1;ratioP1;P1;durP2;ratioP2;P2;SDS_P1;SDS_P2;PMS_P1;PMS_P2;Temp;Humidity;BMP_temperature;BMP_pressure;BME280_temperature;BME280_humidity;BME280_pressure;Samples;Min_cycle;Max_cycle;Signal;HPM_P1;HPM_P2
2023/01/31 00:01:40;;;;;;;19.05;8.13;;;;;;;1.58;100.00;98964.26;1717625;83;25458;-42
2023/01/31 00:04:11;;;;;;;15.40;7.25;;;;;;;1.58;100.00;98961.59;1694672;83;25750;-42
2023/01/31 00:06:49;;;;;;;13.28;7.40;;;;;;;1.59;100.00;98962.41;1717703;83;25475;-42
2023/01/31 00:09:14;;;;;;;13.43;7.65;;;;;;;1.58;100.00;98970.13;1711523;83;28126;-42
2023/01/31 00:11:40;;;;;;;14.90;8.53;;;;;;;1.61;100.00;98970.36;1713432;83;27191;-42
2023/01/31 00:14:10;;;;;;;14.40;8.13;;;;;;;1.63;100.00;98975.42;1717565;83;25514;-41
2023/01/31 00:16:36;;;;;;;21.85;9.68;;;;;;;1.62;100.00;98970.63;1694940;83;25828;-42
2023/01/31 00:19:05;;;;;;;17.70;9.55;;;;;;;1.62;100.00;98973.30;1717625;83;25571;-41
2023/01/31 00:21:33;;;;;;;17.40;8.93;;;;;;;1.65;100.00;98981.25;1717536;83;27303;-44
2023/01/31 00:24:04;;;;;;;15.60;7.72;;;;;;;1.64;100.00;98971.69;1717498;83;25830;-41
2023/01/31 00:26:34;;;;;;;14.53;7.97;;;;;;;1.65;100.00;98988.73;1717530;83;25569;-42
2023/01/31 00:29:04;;;;;;;17.67;7.37;;;;;;;1.66;100.00;98988.97;1717558;83;25735;-42
2023/01/31 00:31:34;;;;;;;18.50;10.68;;;;;;;1.68;100.00;98994.03;1717664;83;25473;-44
2023/01/31 00:34:03;;;;;;;19.73;8.13;;;;;;;1.68;100.00;98990.81;1717607;83;27943;-42
2023/01/31 00:36:34;;;;;;;16.05;7.60;;;;;;;1.69;100.00;98988.96;1717439;83;25807;-41
2023/01/31 00:39:05;;;;;;;17.70;8.38;;;;;;;1.69;100.00;98995.63;1717631;83;25522;-43
2023/01/31 00:41:36;;;;;;;12.68;7.97;;;;;;;1.70;100.00;99001.74;1717589;83;26092;-42
2023/01/31 00:44:06;;;;;;;16.15;7.60;;;;;;;1.69;100.00;98995.63;1717783;83;25580;-44
2023/01/31 00:46:36;;;;;;;14.98;7.03;;;;;;;1.69;100.00;99002.29;1717617;83;26919;-44
2023/01/31 00:49:02;;;;;;;20.08;9.28;;;;;;;1.71;100.00;99002.80;1717445;83;25483;-42
2023/01/31 00:51:28;;;;;;;18.15;7.47;;;;;;;1.70;100.00;99007.08;1717515;83;25666;-42
2023/01/31 00:53:54;;;;;;;14.43;6.60;;;;;;;1.72;100.00;99012.40;1717557;83;25620;-42
2023/01/31 00:56:24;;;;;;;13.55;7.67;;;;;;;1.72;100.00;99023.06;1717548;83;25482;-43
2023/01/31 00:58:54;;;;;;;17.67;8.33;;;;;;;1.74;100.00;99020.09;1717572;83;27359;-45
2023/01/31 01:01:27;;;;;;;13.90;6.85;;;;;;;1.72;100.00;99023.06;1717698;83;25584;-43
2023/01/31 01:03:57;;;;;;;18.07;6.70;;;;;;;1.74;100.00;99016.91;1717741;83;25538;-41
2023/01/31 01:06:27;;;;;;;17.50;6.92;;;;;;;1.74;100.00;99018.75;1717568;83;25675;-42
2023/01/31 01:09:02;;;;;;;15.83;6.62;;;;;;;1.74;100.00;99025.42;1713382;83;25426;-41
2023/01/31 01:11:31;;;;;;;16.17;6.50;;;;;;;1.74;100.00;99026.75;1713267;83;27485;-41
2023/01/31 01:14:01;;;;;;;17.37;8.28;;;;;;;1.73;100.00;99025.19;1717489;83;25671;-42
2023/01/31 01:16:35;;;;;;;15.50;7.33;;;;;;;1.73;100.00;99033.97;1717506;83;25506;-43
2023/01/31 01:19:13;;;;;;;13.55;6.87;;;;;;;1.74;100.00;99034.75;1717648;83;25685;-43
2023/01/31 01:21:39;;;;;;;16.82;7.30;;;;;;;1.72;100.00;99035.06;1717540;83;25587;-42
2023/01/31 01:24:15;;;;;;;16.80;6.90;;;;;;;1.74;100.00;99042.75;1717486;83;27392;-42
2023/01/31 01:26:45;;;;;;;12.60;6.95;;;;;;;1.74;100.00;99041.42;1716428;83;25901;-42
2023/01/31 01:29:13;;;;;;;16.35;6.78;;;;;;;1.72;100.00;99041.72;1717589;83;25582;-43
2023/01/31 01:31:40;;;;;;;14.40;7.50;;;;;;;1.74;100.00;99042.75;1717437;83;25739;-42
2023/01/31 01:34:12;;;;;;;15.83;7.12;;;;;;;1.73;100.00;99037.17;1717606;83;25461;-41
2023/01/31 01:36:43;;;;;;;12.75;6.92;;;;;;;1.74;100.00;99044.08;1717558;83;27460;-43
2023/01/31 01:39:12;;;;;;;13.70;8.00;;;;;;;1.74;100.00;99051.56;1717410;83;27193;-42
2023/01/31 01:41:41;;;;;;;14.63;7.03;;;;;;;1.73;100.00;99049.96;1694764;83;25768;-44
2023/01/31 01:44:57;;;;;;;14.98;6.65;;;;;;;1.73;100.00;99044.62;1717440;83;25689;-46
2023/01/31 01:47:49;;;;;;;12.18;6.08;;;;;;;1.73;100.00;99049.96;1717597;83;25594;-43
2023/01/31 01:50:32;;;;;;;14.07;6.37;;;;;;;1.73;100.00;99053.96;1717592;83;27459;-43
2023/01/31 01:53:15;;;;;;;13.75;5.95;;;;;;;1.74;100.00;99050.23;1717505;83;25575;-42
2023/01/31 01:55:59;;;;;;;13.22;6.37;;;;;;;1.75;100.00;99062.47;1717586;83;25426;-42
2023/01/31 01:58:34;;;;;;;14.47;6.08;;;;;;;1.74;100.00;99064.89;1716921;83;25698;-42
2023/01/31 02:01:05;;;;;;;13.75;5.92;;;;;;;1.74;100.00;99064.08;1717537;83;25318;-42
2023/01/31 02:03:35;;;;;;;12.23;6.45;;;;;;;1.74;100.00;99077.41;1717259;83;27357;-42
2023/01/31 02:06:06;;;;;;;18.77;6.30;;;;;;;1.74;100.00;99083.55;1717424;83;25410;-42
2023/01/31 02:08:38;;;;;;;17.48;5.78;;;;;;;1.75;100.00;99076.34;1717456;83;25579;-42
2023/01/31 02:11:24;;;;;;;12.50;5.72;;;;;;;1.75;100.00;99079.02;1717469;83;25738;-42
2023/01/31 02:13:59;;;;;;;18.42;6.92;;;;;;;1.75;100.00;99082.46;1717495;83;25420;-42
2023/01/31 02:16:25;;;;;;;15.38;6.72;;;;;;;1.75;100.00;99101.13;1694770;83;27444;-42
2023/01/31 02:18:55;;;;;;;15.10;5.92;;;;;;;1.75;100.00;99105.67;1717424;83;25588;-41
2023/01/31 02:21:33;;;;;;;11.40;6.10;;;;;;;1.76;100.00;99100.61;1717453;83;25466;-40
2023/01/31 02:24:43;;;;;;;13.45;6.20;;;;;;;1.75;100.00;99110.45;1717470;83;27861;-41
2023/01/31 02:27:33;;;;;;;11.20;5.42;;;;;;;1.77;100.00;99120.84;1717510;83;25402;-42
2023/01/31 02:30:34;;;;;;;13.88;6.72;;;;;;;1.78;100.00;99123.78;1715798;83;27404;-42
2023/01/31 02:33:24;;;;;;;12.63;5.78;;;;;;;1.77;100.00;99120.84;1717450;83;25476;-42
2023/01/31 02:36:17;;;;;;;14.63;7.08;;;;;;;1.79;100.00;99129.39;1717480;83;25556;-42
2023/01/31 02:38:55;;;;;;;12.47;6.00;;;;;;;1.81;100.00;99127.23;1717483;83;26418;-42
2023/01/31 02:41:45;;;;;;;12.10;5.92;;;;;;;1.80;100.00;99137.08;1717680;83;25478;-42
2023/01/31 02:47:37;;;;;;;14.45;6.15;;;;;;;1.82;100.00;99145.63;1690215;84;25561;-40
2023/01/31 02:50:26;;;;;;;14.68;6.50;;;;;;;1.83;100.00;99149.08;1688839;84;25539;-42
2023/01/31 02:53:01;;;;;;;13.05;6.05;;;;;;;1.84;100.00;99146.67;1690254;84;25588;-41
2023/01/31 02:58:40;;;;;;;14.38;5.55;;;;;;;1.87;100.00;99152.77;1689538;84;27611;-42
2023/01/31 03:01:14;;;;;;;13.58;5.60;;;;;;;1.89;100.00;99164.48;1689761;84;25618;-42
2023/01/31 03:03:42;;;;;;;12.07;6.05;;;;;;;1.89;100.00;99164.48;1690220;84;25596;-41
2023/01/31 03:06:23;;;;;;;15.32;6.72;;;;;;;1.90;100.00;99178.09;1690132;84;25747;-41
2023/01/31 03:09:21;;;;;;;10.28;5.33;;;;;;;1.91;100.00;99177.00;1697736;83;25719;-41
2023/01/31 03:11:57;;;;;;;11.85;5.33;;;;;;;1.91;100.00;99184.48;1705826;84;27338;-41
2023/01/31 03:14:34;;;;;;;13.50;5.25;;;;;;;1.91;100.00;99188.48;1665462;85;25727;-41
2023/01/31 03:17:33;;;;;;;12.85;4.97;;;;;;;1.93;100.00;99193.54;1705913;84;25471;-40
2023/01/31 03:20:11;;;;;;;13.65;5.28;;;;;;;1.93;100.00;99202.33;1705907;84;25640;-43
2023/01/31 03:22:46;;;;;;;12.68;4.97;;;;;;;1.94;100.00;99200.45;1647963;86;25396;-42
2023/01/31 03:25:18;;;;;;;14.20;5.47;;;;;;;1.95;100.00;99208.72;1654739;86;27974;-42
2023/01/31 03:27:51;;;;;;;9.40;4.95;;;;;;;1.95;100.00;99205.52;1713322;83;25584;-43
2023/01/31 03:30:32;;;;;;;12.95;4.97;;;;;;;1.96;100.00;99214.30;1713323;83;25569;-43
2023/01/31 03:33:07;;;;;;;13.53;5.05;;;;;;;1.97;100.00;99216.69;1711426;83;25623;-43
2023/01/31 03:35:38;;;;;;;11.45;4.28;;;;;;;1.96;100.00;99223.12;1713368;83;25600;-44
2023/01/31 03:38:16;;;;;;;7.22;4.12;;;;;;;1.97;100.00;99218.02;1713252;83;29595;-44
2023/01/31 03:40:51;;;;;;;9.73;4.97;;;;;;;1.99;100.00;99230.56;1713225;83;25591;-44
2023/01/31 03:43:57;;;;;;;10.75;4.33;;;;;;;1.99;100.00;99229.23;1633271;85;25667;-43
2023/01/31 03:46:33;;;;;;;11.15;4.50;;;;;;;2.00;100.00;99236.14;1609297;89;25652;-45
2023/01/31 03:49:07;;;;;;;16.25;4.92;;;;;;;2.01;100.00;99232.93;1633633;87;25458;-43
2023/01/31 03:51:37;;;;;;;12.55;3.90;;;;;;;2.01;100.00;99241.75;1633876;87;27447;-41
2023/01/31 03:54:10;;;;;;;11.28;3.67;;;;;;;2.03;100.00;99234.81;1634058;87;25516;-43
2023/01/31 03:56:53;;;;;;;12.50;4.47;;;;;;;2.03;100.00;99241.48;1633327;87;25788;-42
2023/01/31 03:59:27;;;;;;;14.05;4.20;;;;;;;2.03;100.00;99236.93;1634036;87;25728;-43
2023/01/31 04:01:59;;;;;;;14.65;3.80;;;;;;;2.06;100.00;99239.59;1634061;87;25765;-46
2023/01/31 04:04:32;;;;;;;9.13;3.87;;;;;;;2.08;100.00;99244.63;1634096;87;28311;-44
2023/01/31 04:07:02;;;;;;;11.73;4.20;;;;;;;2.05;100.00;99233.44;1612103;87;25761;-43
2023/01/31 04:09:32;;;;;;;12.35;3.72;;;;;;;2.09;99.90;99251.56;1622236;87;25613;-41
2023/01/31 04:12:03;;;;;;;14.87;3.87;;;;;;;2.10;99.77;99249.17;1614317;88;25630;-41
2023/01/31 04:14:33;;;;;;;12.60;4.25;;;;;;;2.10;99.68;99259.30;1614498;88;25496;-42
2023/01/31 04:16:59;;;;;;;15.72;3.52;;;;;;;2.10;99.49;99251.29;1614522;88;27362;-42
2023/01/31 04:19:25;;;;;;;12.20;3.37;;;;;;;2.10;99.41;99256.63;1630899;87;25716;-41
2023/01/31 04:21:51;;;;;;;9.65;3.55;;;;;;;2.12;99.19;99266.47;1664106;86;25710;-42
2023/01/31 04:24:17;;;;;;;13.38;4.33;;;;;;;2.12;99.18;99257.14;1727161;83;25625;-42
2023/01/31 04:26:44;;;;;;;12.73;3.62;;;;;;;2.12;99.06;99261.69;1727299;83;25554;-42
2023/01/31 04:29:10;;;;;;;12.65;3.70;;;;;;;2.12;98.92;99265.14;1727375;83;27301;-42
2023/01/31 04:31:39;;;;;;;18.10;3.98;;;;;;;2.12;98.73;99270.48;1718896;83;25613;-42
2023/01/31 04:34:08;;;;;;;9.78;3.45;;;;;;;2.12;98.64;99271.02;1717520;83;25435;-42
2023/01/31 04:36:36;;;;;;;9.90;3.22;;;;;;;2.13;98.54;99270.75;1717518;83;25750;-41
2023/01/31 04:39:04;;;;;;;15.83;3.65;;;;;;;2.14;98.36;99285.66;1717586;83;25637;-43
2023/01/31 04:41:30;;;;;;;10.43;3.30;;;;;;;2.14;98.08;99297.67;1717539;83;27319;-43
2023/01/31 04:43:56;;;;;;;14.98;3.47;;;;;;;2.14;98.17;99292.33;1693960;83;25663;-41
2023/01/31 04:46:22;;;;;;;11.80;3.52;;;;;;;2.13;98.07;99292.09;1717564;83;25409;-41
2023/01/31 04:48:49;;;;;;;11.12;3.05;;;;;;;2.15;98.01;99300.61;1717631;83;25627;-41
2023/01/31 04:51:15;;;;;;;13.48;3.37;;;;;;;2.15;97.62;99305.95;1717549;83;25625;-40
2023/01/31 04:53:45;;;;;;;9.53;3.50;;;;;;;2.16;97.57;99302.22;1717512;83;27363;-41
2023/01/31 04:56:11;;;;;;;11.73;3.12;;;;;;;2.13;97.16;99301.95;1717482;83;25402;-40
2023/01/31 04:58:37;;;;;;;20.43;4.00;;;;;;;2.13;96.86;99309.44;1717481;83;25639;-43
2023/01/31 05:01:04;;;;;;;10.18;3.47;;;;;;;2.11;97.00;99308.92;1717477;83;25690;-41
2023/01/31 05:03:30;;;;;;;11.57;3.12;;;;;;;2.12;96.84;99308.37;1717497;83;25605;-42
2023/01/31 05:05:56;;;;;;;12.95;3.05;;;;;;;2.10;96.67;99307.31;1717534;83;27348;-43
2023/01/31 05:08:22;;;;;;;10.53;3.00;;;;;;;2.07;96.40;99306.53;1717410;83;27252;-40
2023/01/31 05:10:49;;;;;;;13.88;3.58;;;;;;;2.02;96.23;99306.55;1718778;83;25632;-40
2023/01/31 05:13:15;;;;;;;11.70;2.95;;;;;;;1.99;96.17;99317.25;1721058;83;25643;-44
2023/01/31 05:15:41;;;;;;;16.27;3.35;;;;;;;1.96;96.09;99316.98;1721199;83;25633;-41
2023/01/31 05:18:07;;;;;;;10.45;3.60;;;;;;;1.91;95.91;99323.16;1721138;83;27319;-39
2023/01/31 05:20:39;;;;;;;10.03;3.25;;;;;;;1.86;95.74;99330.64;1720994;82;25464;-39
2023/01/31 05:23:09;;;;;;;9.05;3.37;;;;;;;1.79;95.64;99331.48;1721009;83;25590;-41
2023/01/31 05:25:37;;;;;;;10.05;2.70;;;;;;;1.76;95.57;99345.36;1721114;83;25782;-41
2023/01/31 05:28:05;;;;;;;11.43;2.87;;;;;;;1.72;95.67;99348.84;1721190;83;25481;-42
2023/01/31 05:30:31;;;;;;;9.75;3.60;;;;;;;1.68;95.58;99352.59;1721091;83;27335;-40
2023/01/31 05:32:57;;;;;;;12.95;3.58;;;;;;;1.64;95.71;99363.00;1721019;83;27159;-41
2023/01/31 05:35:24;;;;;;;14.40;2.93;;;;;;;1.62;95.82;99363.02;1721143;82;28175;-41
2023/01/31 05:37:57;;;;;;;13.50;3.02;;;;;;;1.62;95.85;99376.35;1721088;83;25700;-41
2023/01/31 05:40:26;;;;;;;11.95;2.58;;;;;;;1.61;95.99;99384.08;1721204;83;25397;-41
2023/01/31 05:43:00;;;;;;;10.80;3.05;;;;;;;1.60;95.98;99385.13;1721102;83;27440;-42
2023/01/31 05:45:31;;;;;;;9.88;2.45;;;;;;;1.58;96.03;99389.40;1721040;83;25437;-43
2023/01/31 05:47:59;;;;;;;13.55;3.22;;;;;;;1.61;95.80;99398.73;1721055;83;25619;-42
2023/01/31 05:50:27;;;;;;;12.37;2.45;;;;;;;1.61;95.74;99390.20;1721091;83;25616;-41
2023/01/31 05:52:58;;;;;;;5.45;2.02;;;;;;;1.59;95.51;99400.34;1721109;83;25374;-41
2023/01/31 05:55:28;;;;;;;15.78;3.40;;;;;;;1.59;95.41;99405.67;1721183;83;27285;-43
2023/01/31 05:57:59;;;;;;;13.20;2.60;;;;;;;1.58;95.19;99403.27;1720998;83;25456;-45
2023/01/31 06:00:25;;;;;;;17.10;3.35;;;;;;;1.57;95.29;99403.03;1721141;83;25413;-43
2023/01/31 06:02:58;;;;;;;15.23;3.17;;;;;;;1.56;95.11;99402.20;1721109;83;26348;-42
2023/01/31 06:05:27;;;;;;;12.98;3.20;;;;;;;1.55;95.17;99411.80;1721193;83;25568;-42
2023/01/31 06:07:54;;;;;;;14.83;3.15;;;;;;;1.55;95.04;99414.47;1721099;83;27373;-42
2023/01/31 06:10:23;;;;;;;12.73;2.45;;;;;;;1.54;94.93;99419.55;1718662;83;25438;-42
2023/01/31 06:12:49;;;;;;;11.55;2.55;;;;;;;1.53;94.92;99431.27;1715197;83;25617;-42
2023/01/31 06:15:18;;;;;;;13.95;2.65;;;;;;;1.52;94.88;99429.69;1715115;83;25628;-42
2023/01/31 06:17:44;;;;;;;9.55;2.83;;;;;;;1.52;94.92;99439.81;1715325;83;26428;-43
2023/01/31 06:20:13;;;;;;;12.73;3.08;;;;;;;1.52;94.87;99443.81;1715171;83;27373;-41
2023/01/31 06:22:42;;;;;;;6.62;2.37;;;;;;;1.52;94.77;99446.47;1715210;83;34808;-45
2023/01/31 06:25:11;;;;;;;12.33;2.87;;;;;;;1.53;94.85;99460.05;1715231;83;25402;-42
2023/01/31 06:27:37;;;;;;;16.30;2.85;;;;;;;1.53;94.65;99455.26;1715331;83;34797;-42
2023/01/31 06:30:08;;;;;;;12.65;2.47;;;;;;;1.55;94.77;99471.78;1715201;83;25591;-42
2023/01/31 06:32:34;;;;;;;11.50;3.22;;;;;;;1.56;94.67;99468.84;1715163;83;27430;-42
2023/01/31 06:35:00;;;;;;;20.60;3.02;;;;;;;1.56;94.59;99480.84;1715100;83;25379;-43
2023/01/31 06:37:26;;;;;;;11.85;3.00;;;;;;;1.57;94.68;99483.78;1715203;83;25649;-41
2023/01/31 06:39:52;;;;;;;11.28;3.45;;;;;;;1.59;94.67;99490.97;1715086;83;25704;-41
2023/01/31 06:42:23;;;;;;;6.37;2.83;;;;;;;1.61;94.66;99488.83;1714874;83;25396;-42
2023/01/31 06:44:49;;;;;;;9.23;2.72;;;;;;;1.62;94.74;99485.11;1715058;83;27340;-41
2023/01/31 06:47:16;;;;;;;12.15;3.10;;;;;;;1.64;94.56;99497.63;1715068;83;26117;-42
2023/01/31 06:49:43;;;;;;;13.08;2.65;;;;;;;1.67;94.40;99501.09;1715163;83;25640;-41
2023/01/31 06:52:09;;;;;;;10.08;2.92;;;;;;;1.69;94.40;99506.16;1714700;83;25759;-42
2023/01/31 06:54:35;;;;;;;15.55;3.17;;;;;;;1.70;94.09;99517.61;1714501;83;25648;-40
2023/01/31 06:57:01;;;;;;;8.20;3.25;;;;;;;1.73;94.00;99511.75;1690861;83;27352;-41
2023/01/31 06:59:28;;;;;;;15.08;4.33;;;;;;;1.75;94.01;99519.73;1714282;83;25675;-41
2023/01/31 07:01:54;;;;;;;16.10;4.12;;;;;;;1.78;93.96;99521.08;1715349;83;25660;-42
2023/01/31 07:04:20;;;;;;;8.83;3.42;;;;;;;1.78;93.75;99525.87;1715329;83;25565;-41
2023/01/31 07:06:47;;;;;;;17.73;3.55;;;;;;;1.82;94.02;99538.13;1715345;83;25647;-41
2023/01/31 07:09:13;;;;;;;11.10;2.45;;;;;;;1.82;94.08;99544.28;1716453;82;27300;-42
2023/01/31 07:11:39;;;;;;;9.28;2.65;;;;;;;1.87;93.45;99546.12;1722797;83;25627;-42
2023/01/31 07:14:05;;;;;;;11.85;2.87;;;;;;;1.88;93.75;99550.94;1700016;83;25593;-41
2023/01/31 07:16:32;;;;;;;9.05;2.70;;;;;;;1.89;93.78;99556.00;1718387;83;27912;-41
2023/01/31 07:18:58;;;;;;;23.12;3.45;;;;;;;1.92;93.87;99563.98;1717675;83;25649;-42
2023/01/31 07:21:25;;;;;;;12.80;4.15;;;;;;;1.93;92.98;99562.39;1717675;83;27254;-40
2023/01/31 07:23:51;;;;;;;7.35;3.02;;;;;;;1.95;93.60;99568.25;1717536;83;25631;-40
2023/01/31 07:26:17;;;;;;;11.35;2.67;;;;;;;1.97;93.38;99582.11;1717683;83;25586;-41
2023/01/31 07:28:44;;;;;;;8.25;3.35;;;;;;;1.99;93.39;99581.33;1717638;83;26396;-40
2023/01/31 07:31:14;;;;;;;13.60;3.12;;;;;;;2.01;92.75;99578.36;1717661;83;25472;-40
2023/01/31 07:33:40;;;;;;;8.68;2.98;;;;;;;2.03;92.98;99585.59;1717672;83;27989;-41
2023/01/31 07:36:12;;;;;;;16.37;4.08;;;;;;;2.04;92.91;99585.32;1717701;83;25583;-41
2023/01/31 07:38:38;;;;;;;19.30;4.60;;;;;;;2.05;91.90;99593.57;1691933;83;25637;-41
2023/01/31 07:41:07;;;;;;;12.33;3.90;;;;;;;2.07;92.66;99579.97;1717639;83;25625;-41
2023/01/31 07:43:33;;;;;;;11.00;3.30;;;;;;;2.10;92.24;99591.44;1717915;82;25429;-43
2023/01/31 07:46:00;;;;;;;9.18;2.90;;;;;;;2.11;92.29;99592.23;1717617;83;27341;-42
2023/01/31 07:48:27;;;;;;;13.75;3.00;;;;;;;2.14;92.47;99597.83;1717573;83;25648;-41
2023/01/31 07:51:00;;;;;;;10.90;2.80;;;;;;;2.17;92.35;99603.95;1717635;83;25567;-42
2023/01/31 07:53:40;;;;;;;7.53;3.00;;;;;;;2.19;92.25;99601.81;1717653;83;25608;-41
2023/01/31 07:56:12;;;;;;;13.85;3.50;;;;;;;2.21;91.72;99599.70;1716408;83;25710;-42
2023/01/31 07:58:42;;;;;;;12.20;3.70;;;;;;;2.24;92.19;99603.14;1717755;83;27507;-41
2023/01/31 08:03:58;;;;;;;7.75;3.05;;;;;;;2.31;91.46;99612.74;1717601;83;25379;-41
2023/01/31 08:06:27;;;;;;;12.78;2.92;;;;;;;2.36;90.80;99612.73;1717579;83;25624;-40
2023/01/31 08:08:54;;;;;;;10.18;2.58;;;;;;;2.39;90.86;99617.53;1717815;83;25423;-41
2023/01/31 08:11:20;;;;;;;10.30;2.67;;;;;;;2.41;90.83;99627.40;1717545;83;27538;-42
2023/01/31 08:13:46;;;;;;;6.15;2.33;;;;;;;2.45;90.26;99631.66;1717522;83;25641;-41
2023/01/31 08:16:13;;;;;;;7.42;2.35;;;;;;;2.45;90.04;99627.11;1717612;83;25477;-40
2023/01/31 08:18:39;;;;;;;10.23;2.40;;;;;;;2.45;89.71;99631.66;1717610;83;25647;-41
2023/01/31 08:21:07;;;;;;;10.60;2.60;;;;;;;2.47;89.92;99630.84;1717611;83;25650;-40
2023/01/31 08:23:36;;;;;;;10.72;2.50;;;;;;;2.51;90.31;99638.59;1717602;83;27336;-41
2023/01/31 08:26:09;;;;;;;8.95;1.52;;;;;;;2.55;90.35;99633.76;1717692;83;25478;-42
2023/01/31 08:28:37;;;;;;;10.20;2.33;;;;;;;2.59;90.31;99642.84;1717752;83;25625;-41
2023/01/31 08:31:05;;;;;;;13.28;2.37;;;;;;;2.61;89.95;99648.70;1717623;83;26264;-43
2023/01/31 08:33:32;;;;;;;9.35;2.90;;;;;;;2.64;89.28;99647.89;1717646;83;25415;-40
2023/01/31 08:36:15;;;;;;;7.20;2.47;;;;;;;2.65;89.00;99657.52;1717609;82;27395;-41
2023/01/31 08:38:41;;;;;;;11.35;3.50;;;;;;;2.67;89.40;99659.37;1717615;83;25497;-42
2023/01/31 08:41:08;;;;;;;6.55;2.17;;;;;;;2.72;89.43;99658.02;1717609;83;25436;-41
2023/01/31 08:43:36;;;;;;;8.45;2.60;;;;;;;2.75;88.79;99650.26;1717547;83;25684;-41
2023/01/31 08:46:05;;;;;;;6.90;2.47;;;;;;;2.78;88.55;99668.96;1717635;83;25695;-43
2023/01/31 08:48:33;;;;;;;10.30;2.25;;;;;;;2.82;88.17;99671.34;1717600;83;27900;-42
2023/01/31 08:51:05;;;;;;;8.93;2.42;;;;;;;2.82;87.37;99661.20;1717518;83;25496;-41
2023/01/31 08:53:32;;;;;;;7.97;2.30;;;;;;;2.82;87.76;99666.54;1671412;83;25641;-43
2023/01/31 08:56:02;;;;;;;9.93;2.17;;;;;;;2.84;87.70;99681.20;1717582;83;25613;-41
2023/01/31 08:58:32;;;;;;;8.48;1.92;;;;;;;2.83;86.86;99682.30;1717451;83;25679;-42
2023/01/31 09:01:05;;;;;;;7.00;1.98;;;;;;;2.81;86.88;99680.44;1717638;83;27427;-41
2023/01/31 09:03:31;;;;;;;6.12;1.95;;;;;;;2.83;87.15;99680.14;1717603;83;25457;-42
2023/01/31 09:06:01;;;;;;;9.88;2.62;;;;;;;2.86;87.28;99691.62;1717667;83;25646;-41
2023/01/31 09:08:30;;;;;;;13.03;2.90;;;;;;;2.86;85.27;99686.28;1717088;83;25648;-42
2023/01/31 09:10:59;;;;;;;7.22;1.90;;;;;;;2.85;86.57;99681.48;1717577;83;25589;-43
2023/01/31 09:13:27;;;;;;;12.10;2.12;;;;;;;2.87;86.53;99687.34;1717749;83;27391;-42
2023/01/31 09:16:06;;;;;;;10.03;2.58;;;;;;;2.93;86.49;99696.16;1717493;83;25419;-40
2023/01/31 09:18:34;;;;;;;4.87;1.70;;;;;;;2.96;86.82;99692.41;1717868;83;25664;-42
2023/01/31 09:21:17;;;;;;;10.30;2.77;;;;;;;3.00;86.39;99695.33;1717815;83;25693;-42
2023/01/31 09:23:46;;;;;;;9.18;1.98;;;;;;;3.02;84.17;99695.06;1717649;83;25426;-42
2023/01/31 09:26:15;;;;;;;10.50;2.67;;;;;;;2.98;85.33;99700.95;1717576;83;27919;-41
2023/01/31 09:28:44;;;;;;;5.17;2.02;;;;;;;3.01;85.42;99700.92;1717645;83;25715;-42
2023/01/31 09:31:15;;;;;;;9.08;2.27;;;;;;;3.05;85.51;99710.52;1717695;83;25413;-42
2023/01/31 09:33:42;;;;;;;6.10;1.75;;;;;;;3.03;85.18;99702.81;1717575;83;25671;-42
2023/01/31 09:36:14;;;;;;;9.15;2.75;;;;;;;3.04;83.89;99708.95;1717616;83;25474;-43
2023/01/31 09:38:41;;;;;;;7.80;2.20;;;;;;;3.00;84.06;99700.67;1714602;83;27574;-42
2023/01/31 09:41:19;;;;;;;7.03;2.02;;;;;;;2.99;83.54;99700.41;1717500;83;25707;-43
2023/01/31 09:43:57;;;;;;;8.98;2.67;;;;;;;2.98;84.09;99701.49;1717685;83;25415;-43
2023/01/31 09:46:28;;;;;;;11.53;2.80;;;;;;;2.99;83.13;99718.56;1661986;85;29095;-42
2023/01/31 09:48:58;;;;;;;9.03;2.55;;;;;;;3.01;84.16;99710.82;1662240;86;25556;-42
2023/01/31 09:51:26;;;;;;;10.28;2.60;;;;;;;3.03;84.05;99713.50;1662230;86;27276;-40
2023/01/31 09:53:56;;;;;;;7.75;2.40;;;;;;;3.07;84.26;99708.41;1662364;86;25678;-42
2023/01/31 09:56:40;;;;;;;6.12;2.40;;;;;;;3.13;84.27;99706.78;1662089;86;25722;-45
2023/01/31 09:59:15;;;;;;;7.17;2.70;;;;;;;3.22;84.68;99703.52;1662120;85;25747;-42
2023/01/31 10:02:04;;;;;;;7.50;2.52;;;;;;;3.29;84.24;99719.53;1662478;86;25202;-42
2023/01/31 10:05:03;;;;;;;5.77;2.20;;;;;;;3.36;84.16;99716.56;1662552;86;27335;-44
2023/01/31 10:07:37;;;;;;;1.95;1.42;;;;;;;3.42;83.48;99714.11;1659286;86;27237;-42
2023/01/31 10:10:34;;;;;;;9.48;3.02;;;;;;;3.51;83.64;99717.03;1639564;85;25524;-43
2023/01/31 10:13:34;;;;;;;15.75;3.02;;;;;;;3.56;83.00;99727.70;1662127;86;25653;-43
2023/01/31 10:16:18;;;;;;;;;;;;;;;3.53;82.41;99717.00;1663771;86;25356;-43
2023/01/31 10:18:53;;;;;;;10.28;3.22;;;;;;;3.52;82.24;99718.61;1659889;86;27271;-42
2023/01/31 10:21:27;;;;;;;6.78;2.90;;;;;;;3.50;82.25;99725.56;1662568;86;27136;-41
2023/01/31 10:23:59;;;;;;;11.10;2.87;;;;;;;3.47;82.15;99723.44;1689568;83;25530;-44
2023/01/31 10:26:33;;;;;;;13.10;2.83;;;;;;;3.46;82.72;99726.41;1692085;83;27441;-42
2023/01/31 10:29:14;;;;;;;10.40;2.85;;;;;;;3.45;81.18;99723.47;1717711;83;25584;-41
2023/01/31 10:32:07;;;;;;;6.62;2.75;;;;;;;3.44;81.92;99721.86;1711548;83;27965;-45
2023/01/31 10:34:42;;;;;;;16.15;3.22;;;;;;;3.44;81.65;99718.66;1717664;83;25521;-42
2023/01/31 10:37:22;;;;;;;10.58;3.10;;;;;;;3.45;81.04;99719.45;1716542;83;25592;-43
2023/01/31 10:40:15;;;;;;;8.58;3.25;;;;;;;3.43;81.05;99723.73;1717856;83;26041;-43
2023/01/31 10:42:52;;;;;;;11.15;2.33;;;;;;;3.43;81.04;99717.60;1694471;83;25667;-44
2023/01/31 10:45:22;;;;;;;6.00;2.00;;;;;;;3.41;80.66;99716.53;1717852;83;27315;-43
2023/01/31 10:47:55;;;;;;;6.42;2.67;;;;;;;3.38;79.55;99719.75;1717439;83;25414;-43
2023/01/31 10:50:31;;;;;;;11.08;2.90;;;;;;;3.39;80.34;99713.34;1717871;83;25577;-42
2023/01/31 10:53:27;;;;;;;10.25;4.97;;;;;;;3.41;78.18;99709.06;1717729;83;25709;-42
2023/01/31 10:56:10;;;;;;;13.45;5.65;;;;;;;3.41;79.61;99715.20;1717760;83;25572;-43
2023/01/31 10:58:37;;;;;;;11.15;2.60;;;;;;;3.47;80.29;99716.75;1717493;83;28135;-42
2023/01/31 11:01:10;;;;;;;5.90;2.33;;;;;;;3.54;80.08;99721.28;1717638;83;25409;-43
2023/01/31 11:03:35;;;;;;;12.37;2.47;;;;;;;3.63;80.49;99715.36;1717397;83;25439;-43
2023/01/31 11:06:01;;;;;;;12.80;3.08;;;;;;;3.80;79.82;99708.27;1695064;83;25622;-42
2023/01/31 11:08:57;;;;;;;12.93;3.05;;;;;;;3.77;78.41;99709.64;1717739;83;25600;-41
2023/01/31 11:11:26;;;;;;;14.87;3.42;;;;;;;3.74;78.23;99719.55;1717602;83;27309;-44
2023/01/31 11:13:59;;;;;;;;;;;;;;;3.72;78.74;99716.36;1720166;83;25639;-42
2023/01/31 11:16:35;;;;;;;10.63;3.02;;;;;;;3.71;77.72;99703.53;1717258;83;25596;-43
2023/01/31 11:19:22;;;;;;;5.95;2.60;;;;;;;3.70;78.28;99707.27;1717669;83;25672;-41
2023/01/31 11:21:52;;;;;;;6.10;1.98;;;;;;;3.71;78.62;99707.55;1716509;83;25544;-41
2023/01/31 11:24:26;;;;;;;11.45;3.17;;;;;;;3.85;78.03;99720.30;1717618;83;27322;-41
2023/01/31 11:27:00;;;;;;;7.40;2.60;;;;;;;3.89;78.10;99711.97;1717566;83;25529;-42
2023/01/31 11:29:32;;;;;;;13.45;2.45;;;;;;;3.91;77.68;99725.31;1717822;83;25573;-42
2023/01/31 11:32:02;;;;;;;7.50;2.22;;;;;;;3.90;76.70;99724.28;1693627;83;26189;-43
2023/01/31 11:34:32;;;;;;;10.48;2.60;;;;;;;3.86;76.80;99727.23;1717780;83;25567;-43
2023/01/31 11:37:18;;;;;;;14.95;3.27;;;;;;;3.83;77.21;99723.77;1717745;83;27350;-42
2023/01/31 11:40:03;;;;;;;9.73;2.83;;;;;;;3.78;77.10;99709.09;1695106;83;25626;-43
2023/01/31 11:42:31;;;;;;;6.85;3.00;;;;;;;3.76;76.99;99718.73;1714704;83;25631;-42
2023/01/31 11:45:18;;;;;;;9.45;2.42;;;;;;;3.75;76.41;99721.16;1717627;83;25786;-44
2023/01/31 11:47:51;;;;;;;5.10;2.22;;;;;;;3.72;76.71;99727.06;1688752;84;25488;-42
2023/01/31 11:50:34;;;;;;;11.05;2.95;;;;;;;3.71;77.22;99734.30;1690354;84;27543;-43
2023/01/31 11:53:22;;;;;;;7.83;2.95;;;;;;;3.71;76.94;99718.25;1690294;84;25487;-41
2023/01/31 11:55:53;;;;;;;10.48;2.72;;;;;;;3.70;76.98;99731.89;1659218;86;25557;-42
2023/01/31 11:58:30;;;;;;;9.65;2.40;;;;;;;3.69;75.96;99725.72;1690343;84;25683;-44
2023/01/31 12:01:07;;;;;;;9.55;2.95;;;;;;;3.66;76.23;99727.64;1690583;84;25515;-41
2023/01/31 12:03:36;;;;;;;11.95;2.85;;;;;;;3.64;76.30;99723.62;1652901;86;27521;-43
2023/01/31 12:06:10;;;;;;;9.43;2.47;;;;;;;3.67;75.26;99728.43;1663606;84;25628;-41
2023/01/31 12:08:40;;;;;;;11.70;2.33;;;;;;;3.66;75.89;99720.95;1659179;86;25733;-43